Time;durP1;ratioP1;P1;durP2;ratioP2;P2;SDS_P1;SDS_P2;PMS_P1;PMS_P2;Temp;Humidity;BMP_temperature;BMP_pressure;BME280_temperature;BME280_humidity;BME280_pressure;Samples;Min_cycle;Max_cycle;Signal;HPM_P1;HPM_P2
2022/11/26 00:04:52;;;;;;;33.20;10.70;;;3.30;99.90;;;0.89;100.00;100860.84;10592497;27;20056;-80
2022/11/26 00:09:57;;;;;;;29.20;10.47;;;3.30;99.90;;;0.93;100.00;100867.59;10627844;27;20064;-81
2022/11/26 00:15:15;;;;;;;24.60;9.20;;;3.30;99.90;;;0.96;100.00;100876.13;10607586;27;20055;-80
2022/11/26 00:20:23;;;;;;;24.47;9.90;;;3.40;99.90;;;0.99;100.00;100872.47;10579325;27;20150;-80
2022/11/26 00:26:02;;;;;;;29.90;9.40;;;3.40;99.90;;;1.05;100.00;100872.13;10588200;27;20525;-81
2022/11/26 00:31:13;;;;;;;35.40;11.43;;;3.50;99.90;;;1.04;100.00;100879.13;10598053;27;20410;-81
2022/11/26 00:36:30;;;;;;;46.57;12.50;;;3.50;99.90;;;1.04;100.00;100880.91;10581983;27;20089;-81
2022/11/26 00:41:37;;;;;;;49.77;11.00;;;3.50;99.90;;;1.03;100.00;100884.47;10593677;27;20131;-81
2022/11/26 00:46:40;;;;;;;54.27;12.10;;;3.50;99.90;;;1.02;100.00;100878.38;10569661;27;20059;-81
2022/11/26 00:51:45;;;;;;;34.73;10.13;;;3.40;99.90;;;1.04;100.00;100879.13;10570010;27;20060;-81
2022/11/26 00:56:49;;;;;;;38.43;10.43;;;3.50;99.90;;;1.11;100.00;100892.69;10592487;27;20067;-81
2022/11/26 01:01:52;;;;;;;42.30;10.83;;;3.50;99.90;;;1.14;100.00;100892.53;10624104;27;20139;-80
2022/11/26 01:06:55;;;;;;;39.90;10.90;;;3.50;99.90;;;1.17;100.00;100884.47;10585819;27;20108;-81
2022/11/26 01:11:58;;;;;;;44.97;10.73;;;3.60;99.90;;;1.17;100.00;100884.47;10628775;27;20066;-81
2022/11/26 01:17:01;;;;;;;36.80;12.27;;;3.60;99.90;;;1.20;100.00;100881.69;10593714;27;20064;-81
2022/11/26 01:22:04;;;;;;;34.20;10.80;;;3.60;99.90;;;1.18;100.00;100887.94;10573910;27;20297;-81
2022/11/26 01:27:10;;;;;;;29.97;11.57;;;3.60;99.90;;;1.18;100.00;100893.19;10590059;27;20410;-80
2022/11/26 01:32:14;;;;;;;35.93;10.37;;;3.50;99.90;;;1.14;100.00;100891.66;10553375;27;20067;-81
2022/11/26 01:37:16;;;;;;;34.53;10.93;;;3.50;99.90;;;1.07;100.00;100896.41;10623997;27;20059;-81
2022/11/26 01:42:44;;;;;;;31.93;10.47;;;3.40;99.90;;;1.02;100.00;100893.22;10610626;27;20062;-81
2022/11/26 01:47:47;;;;;;;25.07;8.20;;;3.40;99.90;;;1.01;100.00;100891.53;10594687;27;20431;-81
2022/11/26 01:52:51;;;;;;;24.00;8.57;;;3.40;99.90;;;1.01;100.00;100896.78;10608383;27;20059;-81
2022/11/26 01:57:54;;;;;;;24.07;8.57;;;3.40;99.90;;;1.00;100.00;100914.25;10589384;27;20055;-80
2022/11/26 02:02:57;;;;;;;40.67;10.13;;;3.40;99.90;;;1.03;100.00;100906.25;10565394;27;20056;-80
2022/11/26 02:08:01;;;;;;;24.03;8.53;;;3.40;99.90;;;1.03;100.00;100905.41;10588695;27;20137;-81
2022/11/26 02:13:04;;;;;;;34.57;9.83;;;3.50;99.90;;;1.03;100.00;100911.47;10608491;27;20070;-81
2022/11/26 02:18:08;;;;;;;33.20;10.00;;;3.50;99.90;;;1.02;100.00;100914.16;10589562;27;20431;-81
2022/11/26 02:24:05;;;;;;;35.80;9.70;;;3.40;99.90;;;1.04;100.00;100922.78;10568183;27;20150;-80
2022/11/26 02:29:13;;;;;;;28.93;9.20;;;3.40;99.90;;;0.99;100.00;100920.44;10497379;28;20581;-80
2022/11/26 02:34:28;;;;;;;21.50;7.47;;;3.40;99.90;;;1.03;100.00;100932.41;10574618;27;20066;-81
2022/11/26 02:39:39;;;;;;;35.63;8.33;;;3.40;99.90;;;1.02;100.00;100919.41;10612845;27;20125;-80
2022/11/26 02:44:44;;;;;;;25.33;7.57;;;3.40;99.90;;;1.00;100.00;100914.25;10614173;27;20116;-80
2022/11/26 02:49:49;;;;;;;45.07;8.77;;;3.40;99.90;;;1.03;100.00;100911.47;10625178;27;20063;-80
2022/11/26 02:54:53;;;;;;;29.00;8.30;;;3.50;99.90;;;1.05;100.00;100920.06;10598077;27;20571;-80
2022/11/26 02:59:57;;;;;;;29.90;7.60;;;3.50;99.90;;;1.07;100.00;100926.03;10595960;27;20056;-80
2022/11/26 03:05:02;;;;;;;38.80;7.40;;;3.50;99.90;;;1.07;100.00;100931.28;10612384;27;20063;-80
2022/11/26 03:10:06;;;;;;;39.97;8.57;;;3.50;99.90;;;1.05;100.00;100924.47;10591536;27;20062;-80
2022/11/26 03:15:10;;;;;;;38.03;8.17;;;3.50;99.90;;;1.04;100.00;100938.50;10615242;27;20503;-80
2022/11/26 03:20:15;;;;;;;36.63;7.13;;;3.40;99.90;;;1.00;100.00;100936.97;10597299;27;20060;-80
2022/11/26 03:25:18;;;;;;;43.47;8.33;;;3.40;99.90;;;1.00;100.00;100940.44;10628712;27;20086;-81
2022/11/26 03:30:21;;;;;;;37.57;7.87;;;3.40;99.90;;;0.97;100.00;100945.84;10647172;27;20067;-80
2022/11/26 03:35:24;;;;;;;30.70;6.27;;;3.40;99.90;;;0.96;100.00;100945.91;10562899;27;20082;-81
2022/11/26 03:40:27;;;;;;;28.90;6.90;;;3.40;99.90;;;0.95;100.00;100959.94;10569800;27;20151;-81
2022/11/26 03:45:30;;;;;;;34.30;8.50;;;3.30;99.90;;;0.94;100.00;100972.19;10588604;28;20474;-81
2022/11/26 03:50:33;;;;;;;24.93;7.23;;;3.30;99.90;;;0.90;100.00;100975.94;10610679;27;20059;-80
2022/11/26 03:55:36;;;;;;;22.57;7.03;;;3.30;99.90;;;0.83;100.00;100971.09;10627638;27;20056;-81
2022/11/26 04:00:39;;;;;;;29.70;8.50;;;3.30;99.90;;;0.75;100.00;100969.78;10587019;27;20109;-81
2022/11/26 04:05:42;;;;;;;24.60;7.50;;;3.20;99.90;;;0.73;100.00;100976.03;10601200;27;20098;-81
2022/11/26 04:10:45;;;;;;;23.63;6.53;;;3.10;99.90;;;0.74;100.00;100973.31;10555221;28;20099;-81
2022/11/26 04:15:48;;;;;;;22.70;7.27;;;3.10;99.90;;;0.71;100.00;100973.47;10588365;27;20503;-81
2022/11/26 04:20:51;;;;;;;25.47;6.60;;;3.10;99.90;;;0.65;100.00;100984.28;10586328;27;20060;-81
2022/11/26 04:25:55;;;;;;;28.60;7.60;;;3.10;99.90;;;0.58;100.00;100982.94;10605757;27;20090;-81
2022/11/26 04:30:58;;;;;;;28.70;6.73;;;3.00;99.90;;;0.58;100.00;100992.56;10614591;27;20060;-80
2022/11/26 04:36:01;;;;;;;25.50;7.37;;;3.00;99.90;;;0.56;100.00;100995.28;10612427;27;20454;-81
2022/11/26 04:41:04;;;;;;;27.63;6.60;;;3.00;99.90;;;0.58;100.00;101014.34;10609932;27;20453;-81
2022/11/26 04:46:07;;;;;;;29.33;7.83;;;3.00;99.90;;;0.62;100.00;101010.63;10610661;27;20055;-81
2022/11/26 04:51:10;;;;;;;43.27;7.07;;;3.00;99.90;;;0.64;100.00;101024.47;10569077;28;20159;-81
2022/11/26 04:56:13;;;;;;;27.30;6.73;;;3.00;99.90;;;0.65;100.00;101027.91;10585243;28;20133;-80
2022/11/26 05:01:16;;;;;;;41.27;7.40;;;3.00;99.90;;;0.67;100.00;101045.22;10578252;27;20058;-80
2022/11/26 05:06:19;;;;;;;24.70;5.80;;;3.10;99.90;;;0.71;100.00;101046.72;10566741;28;20086;-80
2022/11/26 05:11:22;;;;;;;20.87;5.70;;;3.10;99.90;;;0.71;100.00;101045.88;10609660;27;20064;-81
2022/11/26 05:16:25;;;;;;;22.33;7.73;;;3.10;99.90;;;0.66;100.00;101048.78;10545761;28;20056;-80
2022/11/26 05:21:28;;;;;;;18.80;6.17;;;3.10;99.90;;;0.52;100.00;101044.28;10614265;27;20056;-81
2022/11/26 05:26:31;;;;;;;25.60;7.83;;;3.00;99.90;;;0.34;100.00;101052.28;10566915;28;20427;-80
2022/11/26 05:31:34;;;;;;;22.70;7.53;;;2.80;99.90;;;0.22;100.00;101052.00;10557163;28;20060;-80
2022/11/26 05:36:37;;;;;;;26.23;7.53;;;2.70;99.90;;;0.15;100.00;101066.31;10587925;27;20070;-80
2022/11/26 05:41:40;;;;;;;18.87;7.67;;;2.60;99.90;;;0.13;100.00;101049.88;10567334;28;20060;-80
2022/11/26 05:46:43;;;;;;;17.37;7.80;;;2.50;99.90;;;0.14;100.00;101062.00;10567714;28;20099;-80
2022/11/26 05:51:46;;;;;;;22.73;7.37;;;2.60;99.90;;;0.13;100.00;101078.63;10564710;28;20511;-81
2022/11/26 05:56:49;;;;;;;30.40;6.70;;;2.60;99.90;;;0.15;100.00;101087.22;10563608;28;20533;-81
2022/11/26 06:01:58;;;;;;;26.60;6.43;;;2.60;99.90;;;0.16;100.00;101095.91;10552977;28;20056;-80
2022/11/26 06:07:01;;;;;;;25.60;5.97;;;2.60;99.90;;;0.17;100.00;101098.44;10540276;28;20060;-81
2022/11/26 06:12:06;;;;;;;29.53;6.87;;;2.60;99.90;;;0.19;100.00;101098.38;10613125;27;20538;-80
2022/11/26 06:17:09;;;;;;;22.23;5.97;;;2.60;99.90;;;0.17;100.00;101103.66;10577907;27;20454;-81
2022/11/26 06:22:12;;;;;;;20.57;6.20;;;2.60;99.90;;;0.16;100.00;101101.97;10549027;28;20059;-83
2022/11/26 06:27:15;;;;;;;16.03;5.57;;;2.60;99.90;;;0.16;100.00;101104.59;10582312;27;20078;-83
2022/11/26 06:32:18;;;;;;;15.63;6.03;;;2.60;99.90;;;0.16;100.00;101107.19;10566354;28;20063;-83
2022/11/26 06:37:21;;;;;;;16.37;5.23;;;2.60;99.90;;;0.19;100.00;101101.84;10564985;28;20106;-83
2022/11/26 06:42:24;;;;;;;20.57;5.87;;;2.60;99.90;;;0.17;100.00;101108.03;10584349;27;20144;-82
2022/11/26 06:47:27;;;;;;;20.73;5.43;;;2.60;99.90;;;0.22;100.00;101108.66;10578315;27;20143;-83
2022/11/26 06:52:30;;;;;;;18.00;5.57;;;2.60;99.90;;;0.26;100.00;101108.44;10591114;27;20062;-82
2022/11/26 06:57:33;;;;;;;20.63;6.53;;;2.70;99.90;;;0.33;100.00;101116.78;10574403;27;20069;-82
2022/11/26 07:02:37;;;;;;;24.80;8.63;;;2.70;99.90;;;0.36;100.00;101126.22;10618801;27;20056;-82
2022/11/26 07:07:40;;;;;;;14.43;7.00;;;2.70;99.90;;;0.32;100.00;101128.19;10593526;27;20055;-83
2022/11/26 07:12:43;;;;;;;20.33;7.43;;;2.70;99.90;;;0.20;100.00;101137.50;10586469;27;20139;-83
2022/11/26 07:17:46;;;;;;;23.03;8.73;;;2.60;99.90;;;0.11;100.00;101152.78;10610412;27;20063;-82
2022/11/26 07:22:49;;;;;;;23.37;8.77;;;2.50;99.90;;;0.07;100.00;101149.50;10577414;27;20060;-83
2022/11/26 07:27:52;;;;;;;19.90;8.87;;;2.40;99.90;;;0.10;100.00;101153.72;10596269;27;20078;-83
2022/11/26 07:32:55;;;;;;;22.83;9.50;;;2.40;99.90;;;0.18;100.00;101139.34;10605371;27;20067;-83
2022/11/26 07:37:58;;;;;;;19.93;9.53;;;2.50;99.90;;;0.26;100.00;101139.78;10599479;27;20063;-84
2022/11/26 07:43:01;;;;;;;19.57;8.50;;;2.60;99.90;;;0.34;100.00;101155.06;10595066;27;20055;-84
2022/11/26 07:48:04;;;;;;;27.10;11.13;;;2.60;99.90;;;0.44;100.00;101142.38;10607485;27;20148;-81
2022/11/26 07:53:07;;;;;;;18.33;9.03;;;2.80;99.90;;;0.64;100.00;101149.19;10613434;27;20052;-81
2022/11/26 07:58:10;;;;;;;25.50;10.13;;;2.90;99.90;;;0.83;100.00;101152.50;10598388;27;20051;-81
2022/11/26 08:03:13;;;;;;;24.40;11.37;;;3.10;99.90;;;1.12;100.00;101157.94;10619275;27;20059;-81
2022/11/26 08:08:16;;;;;;;25.63;11.30;;;3.40;99.90;;;1.39;100.00;101153.81;10593396;27;20056;-81
2022/11/26 08:13:19;;;;;;;22.60;10.10;;;3.70;99.90;;;1.63;100.00;101172.53;10595439;27;20061;-81
2022/11/26 08:18:22;;;;;;;21.30;10.07;;;3.90;99.90;;;1.73;100.00;101178.91;10596220;27;20051;-81
2022/11/26 08:23:27;;;;;;;25.70;11.83;;;4.00;99.90;;;1.83;100.00;101180.09;10589245;27;20059;-81
2022/11/26 08:28:30;;;;;;;21.83;9.70;;;4.10;99.90;;;1.96;100.00;101174.13;10592213;27;20423;-81
2022/11/26 08:33:34;;;;;;;36.13;15.23;;;4.20;99.90;;;2.14;100.00;101183.56;10612806;27;20056;-81
2022/11/26 08:38:37;;;;;;;26.53;11.47;;;4.40;99.90;;;2.29;100.00;101192.31;10596692;27;20060;-82
2022/11/26 08:43:41;;;;;;;25.53;11.23;;;4.50;99.90;;;2.38;100.00;101200.47;10608976;27;20067;-81
2022/11/26 08:49:05;;;;;;;25.03;11.97;;;4.70;99.90;;;2.45;100.00;101200.09;10582694;27;20060;-81
2022/11/26 08:54:08;;;;;;;26.87;12.17;;;4.70;99.90;;;2.56;100.00;101205.56;10607965;27;20404;-81
2022/11/26 08:59:11;;;;;;;22.03;10.67;;;4.80;99.90;;;2.69;100.00;101211.75;10579518;27;20443;-81
2022/11/26 09:04:15;;;;;;;24.93;13.30;;;4.90;99.90;;;2.82;100.00;101209.22;10571494;28;20495;-81
2022/11/26 09:09:18;;;;;;;32.80;14.67;;;5.10;99.90;;;2.97;100.00;101212.72;10620687;27;20528;-81
2022/11/26 09:14:25;;;;;;;22.17;11.00;;;5.30;99.90;;;3.08;100.00;101228.66;10592294;27;20116;-80
2022/11/26 09:19:28;;;;;;;26.07;15.33;;;5.40;99.90;;;3.11;100.00;101224.03;10599387;27;20066;-81
2022/11/26 09:24:31;;;;;;;21.63;11.37;;;5.50;99.90;;;3.18;100.00;101228.00;10582460;27;20048;-80
2022/11/26 09:29:33;;;;;;;23.23;12.53;;;5.50;99.90;;;3.18;100.00;101225.38;10587427;27;20051;-80
2022/11/26 09:34:36;;;;;;;27.17;13.03;;;5.60;99.90;;;3.25;100.00;101231.09;10619747;27;20562;-80
2022/11/26 09:39:40;;;;;;;24.63;11.13;;;5.60;99.90;;;3.31;100.00;101238.56;10598647;27;20059;-80
2022/11/26 09:45:00;;;;;;;24.00;10.87;;;5.60;99.90;;;3.33;100.00;101234.06;10600297;27;20056;-80
2022/11/26 09:50:12;;;;;;;26.80;11.87;;;5.60;99.90;;;3.45;100.00;101235.91;10607805;27;20055;-80
2022/11/26 09:55:24;;;;;;;30.07;13.70;;;5.70;99.90;;;3.62;100.00;101242.75;10602503;27;20141;-80
2022/11/26 10:00:36;;;;;;;24.40;12.97;;;5.90;99.90;;;3.70;100.00;101226.47;10604612;27;20059;-80
2022/11/26 10:05:51;;;;;;;31.38;17.73;;;6.00;99.90;;;3.76;100.00;101226.06;10617558;27;20112;-80
2022/11/26 10:11:37;;;;;;;28.90;15.33;;;6.10;99.90;;;3.94;100.00;101227.50;10590102;27;20411;-80
2022/11/26 10:16:49;;;;;;;54.43;30.60;;;6.20;99.90;;;4.05;100.00;101231.22;10473063;28;20072;-81
2022/11/26 10:21:59;;;;;;;30.57;16.67;;;6.40;99.90;;;4.22;100.00;101228.34;10566805;27;20056;-81
2022/11/26 10:27:25;;;;;;;29.33;13.83;;;6.60;99.90;;;4.36;100.00;101222.97;10579756;27;20056;-81
2022/11/26 10:32:41;;;;;;;33.30;17.83;;;6.70;99.90;;;4.53;100.00;101235.84;10605253;27;20056;-81
2022/11/26 10:37:44;;;;;;;31.10;14.57;;;6.90;99.90;;;4.66;100.00;101227.97;10580557;27;20110;-82
2022/11/26 10:43:20;;;;;;;93.77;55.13;;;7.00;99.90;;;4.77;100.00;101220.16;10589120;27;20066;-83
2022/11/26 10:48:28;;;;;;;34.73;17.37;;;7.10;99.90;;;4.95;100.00;101218.06;10593871;27;20058;-83
2022/11/26 10:53:48;;;;;;;33.47;17.97;;;7.30;99.90;;;5.10;100.00;101210.88;10616408;27;20182;-83
2022/11/26 10:58:53;;;;;;;28.33;15.23;;;7.40;99.90;;;5.23;100.00;101224.03;10632824;27;20066;-83
2022/11/26 11:03:57;;;;;;;28.70;15.83;;;7.50;99.90;;;5.30;100.00;101217.38;10602114;27;20083;-83
2022/11/26 11:09:30;;;;;;;31.40;15.93;;;7.60;99.90;;;5.38;100.00;101207.13;10635659;27;20132;-83
2022/11/26 11:14:34;;;;;;;36.43;20.27;;;7.70;99.90;;;5.42;100.00;101199.84;10616527;27;20059;-83
2022/11/26 11:19:44;;;;;;;32.63;16.43;;;7.80;99.90;;;5.51;100.00;101200.00;10615045;27;20114;-83
2022/11/26 11:24:48;;;;;;;29.67;15.00;;;7.90;99.90;;;5.64;100.00;101215.81;10598684;27;20059;-83
2022/11/26 11:29:51;;;;;;;38.33;19.20;;;8.00;99.90;;;5.77;100.00;101197.28;10596891;27;20134;-83
2022/11/26 11:34:54;;;;;;;30.03;15.77;;;8.10;99.90;;;5.87;100.00;101190.38;10613174;27;20055;-83
2022/11/26 11:40:12;;;;;;;30.53;16.17;;;8.30;99.90;;;5.92;100.00;101188.25;10560110;28;20064;-83
2022/11/26 11:45:41;;;;;;;29.43;16.00;;;8.30;99.90;;;5.91;100.00;101183.94;10592368;27;20140;-83
2022/11/26 11:51:13;;;;;;;25.83;14.83;;;8.30;99.90;;;6.01;100.00;101186.75;10598118;27;20064;-83
2022/11/26 11:56:25;;;;;;;;;;;8.30;99.90;;;6.10;100.00;101178.97;10613150;27;20059;-83
2022/11/26 12:02:16;;;;;;;28.97;14.47;;;8.50;99.90;;;6.29;100.00;101177.59;10611606;27;20004;-83
2022/11/26 12:07:36;;;;;;;24.97;13.73;;;8.60;99.90;;;6.52;100.00;101187.22;10613672;27;20058;-82
2022/11/26 12:12:51;;;;;;;22.73;12.37;;;8.90;99.90;;;6.71;100.00;101181.38;10633210;27;20083;-83
2022/11/26 12:18:30;;;;;;;45.37;23.37;;;9.10;99.90;;;6.81;100.00;101171.78;10561651;28;20483;-82
2022/11/26 12:23:47;;;;;;;28.67;14.83;;;9.20;99.90;;;6.83;100.00;101183.06;10611998;27;20100;-82
2022/11/26 12:29:11;;;;;;;56.63;31.73;;;9.20;99.90;;;6.85;100.00;101182.97;10595570;27;20060;-82
2022/11/26 12:34:37;;;;;;;29.60;16.37;;;9.30;99.90;;;6.84;100.00;101176.84;10596042;27;20059;-82
2022/11/26 12:40:05;;;;;;;31.33;16.23;;;9.30;99.90;;;6.91;100.00;101166.63;10580637;27;20060;-82
2022/11/26 12:45:18;;;;;;;99.93;55.43;;;9.30;99.90;;;6.93;100.00;101169.97;10557146;27;20525;-82
2022/11/26 12:51:01;;;;;;;43.70;21.63;;;9.30;99.90;;;6.92;100.00;101170.94;10552537;28;20458;-82
2022/11/26 12:56:40;;;;;;;29.70;16.13;;;9.30;99.90;;;6.95;100.00;101173.31;10619486;27;20055;-82
2022/11/26 13:01:43;;;;;;;29.57;16.10;;;9.20;99.90;;;6.91;100.00;101164.81;10611281;27;20056;-82
2022/11/26 13:06:52;;;;;;;28.20;15.23;;;9.20;99.90;;;6.90;100.00;101175.53;10629104;27;20051;-82
2022/11/26 13:12:16;;;;;;;30.73;16.40;;;9.20;99.90;;;6.81;100.00;101173.59;10611788;27;20056;-82
2022/11/26 13:17:36;;;;;;;29.63;14.23;;;9.10;99.90;;;6.68;100.00;101179.81;10627385;27;20139;-82
2022/11/26 13:23:22;;;;;;;25.80;13.83;;;9.00;99.90;;;6.58;100.00;101173.56;10610691;27;20066;-83
2022/11/26 13:28:53;;;;;;;25.50;13.47;;;8.90;99.90;;;6.42;100.00;101176.56;10611075;27;20060;-82
2022/11/26 13:34:01;;;;;;;30.30;14.80;;;8.80;99.90;;;6.30;100.00;101179.28;10609831;27;20055;-83
2022/11/26 13:39:47;;;;;;;38.87;20.20;;;8.70;99.90;;;6.25;100.00;101176.16;10610863;27;20059;-82
2022/11/26 13:45:13;;;;;;;28.97;16.37;;;8.60;99.90;;;6.20;100.00;101181.78;10645006;27;20055;-83
2022/11/26 13:50:42;;;;;;;27.73;15.80;;;8.50;99.90;;;6.16;100.00;101190.88;10543535;27;20067;-83
2022/11/26 13:55:51;;;;;;;28.70;17.17;;;8.50;99.90;;;6.11;100.00;101191.19;10590052;27;20138;-81
2022/11/26 14:00:55;;;;;;;46.60;26.33;;;8.40;99.90;;;6.07;100.00;101197.69;10609795;27;20105;-81
2022/11/26 14:05:58;;;;;;;39.37;21.90;;;8.40;99.90;;;6.07;100.00;101192.41;10584176;27;20155;-81
2022/11/26 14:11:09;;;;;;;51.07;24.77;;;8.40;99.90;;;6.02;100.00;101191.91;10566897;28;20069;-81
2022/11/26 14:16:12;;;;;;;46.90;26.87;;;8.30;99.90;;;5.94;100.00;101204.84;10555864;27;20059;-82
2022/11/26 14:21:18;;;;;;;27.47;15.13;;;8.30;99.90;;;5.85;100.00;101192.28;10592568;27;20109;-81
2022/11/26 14:26:38;;;;;;;24.67;14.67;;;8.20;99.90;;;5.69;100.00;101200.47;10598065;27;20067;-81
2022/11/26 14:31:53;;;;;;;19.23;11.80;;;8.00;99.90;;;5.56;100.00;101195.25;10600233;27;20062;-82
2022/11/26 14:36:59;;;;;;;23.40;12.90;;;7.90;99.90;;;5.48;100.00;101194.97;10635519;27;20089;-81
2022/11/26 14:42:02;;;;;;;35.33;20.27;;;7.80;99.90;;;5.40;100.00;101191.19;10590913;27;20059;-83
2022/11/26 14:47:19;;;;;;;47.93;27.87;;;7.70;99.90;;;5.31;100.00;101204.09;10598275;27;20059;-81
2022/11/26 14:52:33;;;;;;;73.17;40.43;;;7.60;99.90;;;5.22;100.00;101201.28;10598902;27;20066;-81
2022/11/26 14:58:12;;;;;;;32.37;14.77;;;7.50;99.90;;;5.12;100.00;101210.78;10617290;27;20090;-81
2022/11/26 15:03:23;;;;;;;30.53;17.07;;;7.40;99.90;;;5.01;100.00;101225.53;10604559;27;20160;-82
2022/11/26 15:08:26;;;;;;;25.15;13.52;;;7.30;99.90;;;4.87;100.00;101220.41;10598731;27;20056;-82
2022/11/26 15:13:41;;;;;;;42.07;21.67;;;7.10;99.90;;;4.70;100.00;101212.81;10598820;27;20146;-82
2022/11/26 15:18:45;;;;;;;34.73;18.67;;;7.00;99.90;;;4.51;100.00;101219.31;10598180;27;20079;-82
2022/11/26 15:23:51;;;;;;;36.20;20.17;;;6.80;99.90;;;4.29;100.00;101224.34;10598573;27;20060;-82
2022/11/26 15:28:54;;;;;;;34.00;17.53;;;6.60;99.90;;;4.21;100.00;101237.19;10597098;27;20055;-82
2022/11/26 15:33:57;;;;;;;38.57;19.57;;;6.40;99.90;;;4.10;100.00;101245.75;10598474;27;20534;-82
2022/11/26 15:39:06;;;;;;;36.93;18.17;;;6.30;99.90;;;4.00;100.00;101242.88;10596605;27;20113;-82
2022/11/26 15:44:25;;;;;;;25.27;14.03;;;6.30;99.90;;;3.91;100.00;101234.78;10632323;27;20063;-80
2022/11/26 15:49:39;;;;;;;40.27;18.57;;;6.20;99.90;;;3.82;100.00;101235.34;10611624;27;20066;-80
2022/11/26 15:54:55;;;;;;;43.63;22.10;;;6.10;99.90;;;3.69;100.00;101251.06;10584001;27;20051;-80
2022/11/26 16:00:21;;;;;;;;;;;6.00;99.90;;;3.57;100.00;101236.94;10576647;27;20483;-80
2022/11/26 16:05:37;;;;;;;42.13;19.50;;;5.90;99.90;;;3.52;100.00;101246.03;10631186;27;20001;-82
2022/11/26 16:10:40;;;;;;;58.97;25.77;;;5.90;99.90;;;3.49;100.00;101241.84;10595357;27;20109;-79
2022/11/26 16:16:15;;;;;;;38.17;18.63;;;5.80;99.90;;;3.45;100.00;101249.06;10610518;27;20060;-80
2022/11/26 16:21:31;;;;;;;37.33;17.00;;;5.80;99.90;;;3.43;100.00;101248.31;10587361;27;20112;-80
2022/11/26 16:26:59;;;;;;;31.40;14.37;;;5.80;99.90;;;3.46;100.00;101234.13;10589235;27;20066;-80
2022/11/26 16:32:02;;;;;;;33.53;14.80;;;5.80;99.90;;;3.45;100.00;101241.16;10604167;27;20063;-80
2022/11/26 16:37:28;;;;;;;49.43;21.17;;;5.80;99.90;;;3.43;100.00;101231.72;10592295;27;20051;-80
2022/11/26 16:42:32;;;;;;;31.97;13.83;;;5.80;99.90;;;3.40;100.00;101227.47;10583894;27;20135;-80
2022/11/26 16:47:48;;;;;;;35.50;16.20;;;5.70;99.90;;;3.36;100.00;101233.88;10586112;27;20060;-80
2022/11/26 16:52:53;;;;;;;34.87;16.33;;;5.70;99.90;;;3.34;100.00;101235.75;10562787;27;20064;-78
2022/11/26 16:58:00;;;;;;;40.47;20.30;;;5.70;99.90;;;3.30;100.00;101239.53;10614083;27;20388;-79
2022/11/26 17:03:03;;;;;;;68.07;32.53;;;5.60;99.90;;;3.25;100.00;101246.84;10608901;27;20056;-80
2022/11/26 17:08:10;;;;;;;67.83;32.83;;;5.60;99.90;;;3.20;100.00;101238.41;10627574;27;20457;-78
2022/11/26 17:13:14;;;;;;;88.73;41.27;;;5.50;99.90;;;3.15;100.00;101245.72;10585245;27;20063;-78
2022/11/26 17:18:24;;;;;;;69.10;35.57;;;5.50;99.90;;;3.10;100.00;101247.78;10564058;27;20441;-77
2022/11/26 17:23:27;;;;;;;55.07;26.73;;;5.40;99.90;;;3.08;100.00;101254.91;10628464;27;20090;-78
2022/11/26 17:28:30;;;;;;;38.53;18.97;;;5.40;99.90;;;3.12;100.00;101254.63;10602780;27;20056;-78
2022/11/26 17:33:33;;;;;;;35.87;18.03;;;5.50;99.90;;;3.30;100.00;101257.03;10618987;27;20120;-80
2022/11/26 17:38:36;;;;;;;32.27;16.97;;;5.60;99.90;;;3.48;100.00;101255.91;10586228;27;20088;-80
2022/11/26 17:43:39;;;;;;;33.47;15.60;;;5.80;99.90;;;3.75;100.00;101245.44;10619927;27;20108;-80
2022/11/26 17:48:43;;;;;;;34.07;16.67;;;6.00;99.90;;;3.95;100.00;101252.84;10606695;27;20063;-80
2022/11/26 17:53:46;;;;;;;29.27;15.43;;;6.20;99.90;;;4.02;100.00;101250.69;10574171;28;20114;-80
2022/11/26 17:58:50;;;;;;;34.87;19.00;;;6.30;99.90;;;4.08;100.00;101249.44;10597308;27;20522;-79
2022/11/26 18:03:53;;;;;;;38.23;17.63;;;6.40;99.90;;;4.11;100.00;101241.34;10627068;27;20055;-80
2022/11/26 18:08:55;;;;;;;31.33;16.80;;;6.40;99.90;;;4.14;100.00;101239.38;10608764;27;20461;-80
2022/11/26 18:13:58;;;;;;;32.53;16.40;;;6.50;99.90;;;4.19;100.00;101242.50;10592298;27;20051;-80
2022/11/26 18:19:01;;;;;;;33.53;17.67;;;6.50;99.90;;;4.25;100.00;101238.63;10608401;27;20070;-80
2022/11/26 18:24:06;;;;;;;57.57;29.40;;;6.60;99.90;;;4.34;100.00;101243.31;10618118;27;20507;-80
2022/11/26 18:29:10;;;;;;;52.00;27.47;;;6.60;99.90;;;4.39;100.00;101240.38;10587546;27;20048;-80
2022/11/26 18:34:13;;;;;;;66.53;34.40;;;6.70;99.90;;;4.37;100.00;101237.81;10605918;27;20113;-80
2022/11/26 18:39:16;;;;;;;59.73;30.03;;;6.70;99.90;;;4.37;100.00;101237.81;10599511;27;20403;-80
2022/11/26 18:44:19;;;;;;;144.97;75.23;;;6.70;99.90;;;4.34;100.00;101248.56;10608834;27;20143;-79
2022/11/26 18:49:23;;;;;;;83.00;41.27;;;6.70;99.90;;;4.35;100.00;101239.72;10638824;27;20062;-80
2022/11/26 18:54:26;;;;;;;87.63;46.37;;;6.70;99.90;;;4.33;100.00;101244.25;10613831;27;20059;-80
2022/11/26 18:59:29;;;;;;;70.60;36.47;;;6.70;99.90;;;4.30;100.00;101244.44;10623174;27;20124;-80
2022/11/26 19:04:32;;;;;;;64.10;31.97;;;6.70;99.90;;;4.21;100.00;101253.81;10605690;27;20056;-80
2022/11/26 19:09:36;;;;;;;60.40;31.73;;;6.60;99.90;;;4.13;100.00;101247.34;10593684;27;20128;-80
2022/11/26 19:14:39;;;;;;;98.90;44.00;;;6.50;99.90;;;4.06;100.00;101251.31;10615365;27;20171;-80
2022/11/26 19:19:42;;;;;;;66.97;33.30;;;6.40;99.90;;;4.01;100.00;101251.63;10609685;27;20109;-80
2022/11/26 19:24:47;;;;;;;72.20;33.83;;;6.40;99.90;;;4.00;100.00;101260.44;10618517;27;20419;-78
2022/11/26 19:29:50;;;;;;;77.37;35.90;;;6.30;99.90;;;3.97;100.00;101256.25;10631503;27;20063;-78
2022/11/26 19:34:53;;;;;;;88.27;42.57;;;6.30;99.90;;;3.98;100.00;101265.81;10554374;28;20062;-80
2022/11/26 19:39:56;;;;;;;59.73;31.03;;;6.30;99.90;;;3.98;100.00;101270.25;10572560;28;20063;-80
2022/11/26 19:44:59;;;;;;;67.83;31.40;;;6.30;99.90;;;3.95;100.00;101268.63;10607395;27;20059;-78
2022/11/26 19:50:02;;;;;;;67.03;31.83;;;6.30;99.90;;;3.92;100.00;101275.91;10646717;27;20067;-78
2022/11/26 19:55:05;;;;;;;54.23;28.13;;;6.30;99.90;;;3.87;100.00;101270.94;10613598;27;20059;-78
2022/11/26 20:00:09;;;;;;;67.03;33.43;;;6.20;99.90;;;3.87;100.00;101273.56;10596734;27;20129;-78
2022/11/26 20:05:12;;;;;;;70.17;35.90;;;6.20;99.90;;;3.87;100.00;101281.44;10582305;27;20082;-78
2022/11/26 20:10:15;;;;;;;69.27;31.37;;;6.20;99.90;;;3.87;100.00;101286.69;10597624;27;20055;-77
2022/11/26 20:15:18;;;;;;;56.27;27.53;;;6.20;99.90;;;3.85;100.00;101285.13;10597039;27;20055;-78
2022/11/26 20:20:21;;;;;;;74.77;37.03;;;6.20;99.90;;;3.82;100.00;101283.53;10599114;27;20208;-78
2022/11/26 20:25:24;;;;;;;63.70;30.23;;;6.20;99.90;;;3.83;100.00;101287.00;10596322;27;20067;-78
2022/11/26 20:30:28;;;;;;;64.13;29.63;;;6.10;99.90;;;3.82;100.00;101282.69;10610365;27;20060;-78
2022/11/26 20:35:30;;;;;;;81.47;37.03;;;6.10;99.90;;;3.79;100.00;101286.34;10613060;27;20063;-78
2022/11/26 20:40:34;;;;;;;55.70;25.03;;;6.10;99.90;;;3.79;100.00;101280.25;10594626;27;20067;-77
2022/11/26 20:45:37;;;;;;;93.23;39.17;;;6.10;99.90;;;3.77;100.00;101277.72;10625245;27;20433;-78
2022/11/26 20:50:40;;;;;;;61.33;28.60;;;6.10;99.90;;;3.76;100.00;101282.13;10553429;28;20581;-78
2022/11/26 20:55:52;;;;;;;63.83;33.33;;;6.10;99.90;;;3.76;100.00;101286.53;10618536;27;20055;-79
2022/11/26 21:00:56;;;;;;;88.03;41.93;;;6.10;99.90;;;3.75;100.00;101290.97;10594340;27;20113;-78
2022/11/26 21:06:02;;;;;;;66.77;31.03;;;6.10;99.90;;;3.72;100.00;101283.28;10612524;27;20055;-78